Time;durP1;ratioP1;P1;durP2;ratioP2;P2;SDS_P1;SDS_P2;PMS_P1;PMS_P2;Temp;Humidity;BMP_temperature;BMP_pressure;BME280_temperature;BME280_humidity;BME280_pressure;Samples;Min_cycle;Max_cycle;Signal;HPM_P1;HPM_P2
2022/01/16 00:04:15;;;;;;;91.90;26.20;;;1.60;50.50;;;;;;5015746;28;20526;-68
2022/01/16 00:06:45;;;;;;;106.73;29.10;;;1.60;50.40;;;;;;5048024;28;20478;-69
2022/01/16 00:09:14;;;;;;;94.53;27.33;;;1.50;50.80;;;;;;5047757;28;20485;-68
2022/01/16 00:11:42;;;;;;;86.17;26.30;;;1.50;50.80;;;;;;5047883;28;20446;-68
2022/01/16 00:14:09;;;;;;;94.70;27.73;;;1.50;51.00;;;;;;5048673;28;20458;-68
2022/01/16 00:16:36;;;;;;;87.87;27.10;;;1.50;51.10;;;;;;5047221;28;20490;-68
2022/01/16 00:19:03;;;;;;;102.90;28.30;;;1.50;50.90;;;;;;5048238;28;20457;-68
2022/01/16 00:21:33;;;;;;;93.30;31.40;;;1.60;51.10;;;;;;5047478;28;20544;-67
2022/01/16 00:24:00;;;;;;;107.90;34.60;;;1.60;50.70;;;;;;5036289;28;20450;-67
2022/01/16 00:26:28;;;;;;;92.67;29.43;;;1.60;50.80;;;;;;5030497;28;20485;-68
2022/01/16 00:28:55;;;;;;;98.47;29.70;;;1.60;50.60;;;;;;5048226;28;20464;-67
2022/01/16 00:31:23;;;;;;;85.43;28.23;;;1.60;50.70;;;;;;5047871;28;20478;-67
2022/01/16 00:33:51;;;;;;;92.07;27.37;;;1.60;50.80;;;;;;5047845;28;20821;-67
2022/01/16 00:36:20;;;;;;;84.07;27.30;;;1.60;50.70;;;;;;5047858;28;20485;-69
2022/01/16 00:38:48;;;;;;;90.10;27.50;;;1.50;50.80;;;;;;5046984;28;20508;-68
2022/01/16 00:41:17;;;;;;;87.87;28.70;;;1.60;50.30;;;;;;5047292;28;20662;-67
2022/01/16 00:43:46;;;;;;;85.30;27.60;;;1.50;50.50;;;;;;5047521;28;20981;-69
2022/01/16 00:46:13;;;;;;;82.50;26.17;;;1.50;50.70;;;;;;5047302;28;20481;-68
2022/01/16 00:48:40;;;;;;;87.23;25.07;;;1.50;50.70;;;;;;5046505;28;20466;-67
2022/01/16 00:51:08;;;;;;;81.10;25.13;;;1.50;51.00;;;;;;5046956;28;20958;-68
2022/01/16 00:53:35;;;;;;;79.63;24.90;;;1.50;50.90;;;;;;5048161;28;20556;-68
2022/01/16 00:56:02;;;;;;;77.53;24.83;;;1.50;50.90;;;;;;5047356;28;21017;-68
2022/01/16 00:58:28;;;;;;;86.73;25.87;;;1.50;50.80;;;;;;5046226;28;20458;-68
2022/01/16 01:00:56;;;;;;;79.47;26.03;;;1.50;50.80;;;;;;5046480;28;20478;-68
2022/01/16 01:03:25;;;;;;;81.40;27.37;;;1.50;50.70;;;;;;5047180;28;20489;-69
2022/01/16 01:05:52;;;;;;;79.07;25.50;;;1.50;50.70;;;;;;5044113;28;20511;-69
2022/01/16 01:08:19;;;;;;;81.90;28.27;;;1.50;50.60;;;;;;5035127;28;20962;-68
2022/01/16 01:10:50;;;;;;;79.40;25.53;;;1.60;50.40;;;;;;5050397;28;20903;-68
2022/01/16 01:13:23;;;;;;;75.83;24.67;;;1.50;50.40;;;;;;5038360;28;20462;-68
2022/01/16 01:15:58;;;;;;;75.23;25.40;;;1.60;50.40;;;;;;5032684;28;20503;-67
2022/01/16 01:18:27;;;;;;;86.37;28.67;;;1.60;50.40;;;;;;5050882;28;20491;-68
2022/01/16 01:20:55;;;;;;;80.27;26.90;;;1.60;50.40;;;;;;5050507;28;20469;-68
2022/01/16 01:23:22;;;;;;;80.37;26.77;;;1.60;50.40;;;;;;5051997;28;20489;-68
2022/01/16 01:25:49;;;;;;;80.77;24.80;;;1.60;50.20;;;;;;5051061;28;20484;-67
2022/01/16 01:28:15;;;;;;;83.53;25.90;;;1.50;50.30;;;;;;5051607;28;20446;-68
2022/01/16 01:30:44;;;;;;;84.10;26.57;;;1.60;50.20;;;;;;5050140;28;20473;-68
2022/01/16 01:33:13;;;;;;;81.50;26.00;;;1.50;50.20;;;;;;5050223;28;20465;-69
2022/01/16 01:35:41;;;;;;;76.73;24.60;;;1.50;50.30;;;;;;5051634;28;20486;-68
2022/01/16 01:38:10;;;;;;;84.40;26.43;;;1.50;50.20;;;;;;5033225;28;21013;-69
2022/01/16 01:40:38;;;;;;;78.60;24.63;;;1.50;50.30;;;;;;5048537;28;21090;-68
2022/01/16 01:51:02;;;;;;;81.80;24.33;;;1.60;50.30;;;;;;5049702;28;20541;-68
2022/01/16 01:51:31;;;;;;;89.70;25.90;;;1.60;50.20;;;;;;5032399;28;20488;-69
2022/01/16 01:53:57;;;;;;;83.30;27.03;;;1.60;50.30;;;;;;5051175;28;20521;-68
2022/01/16 01:56:26;;;;;;;84.97;26.40;;;1.60;50.20;;;;;;5050286;28;20573;-69
2022/01/16 01:58:54;;;;;;;74.27;27.80;;;1.60;50.20;;;;;;5051545;28;20462;-68
2022/01/16 02:01:21;;;;;;;82.80;24.80;;;1.60;50.20;;;;;;5049408;28;20985;-68
2022/01/16 02:03:48;;;;;;;90.13;26.70;;;1.60;50.20;;;;;;5047223;28;20500;-68
2022/01/16 02:06:18;;;;;;;75.53;25.90;;;1.60;50.20;;;;;;5051508;28;20569;-68
2022/01/16 02:08:51;;;;;;;76.83;25.60;;;1.60;50.20;;;;;;5050568;28;20500;-68
2022/01/16 02:11:19;;;;;;;78.60;26.87;;;1.60;50.00;;;;;;5051050;28;20535;-68
2022/01/16 02:13:52;;;;;;;78.00;25.60;;;1.60;50.00;;;;;;5048809;28;20458;-68
2022/01/16 02:36:04;;;;;;;70.37;24.47;;;1.70;48.60;;;;;;5010479;28;20475;-67
2022/01/16 02:38:33;;;;;;;73.87;25.67;;;1.60;48.80;;;;;;5048916;28;20484;-67
2022/01/16 02:41:03;;;;;;;72.37;25.77;;;1.60;48.60;;;;;;5047835;28;20919;-67
2022/01/16 02:43:32;;;;;;;73.97;24.57;;;1.60;48.70;;;;;;5049818;28;20462;-67
2022/01/16 02:46:35;;;;;;;70.93;24.63;;;1.50;49.00;;;;;;5050238;28;20482;-68
2022/01/16 02:48:57;;;;;;;78.43;27.97;;;1.50;49.00;;;;;;5049326;28;21024;-67
2022/01/16 02:51:30;;;;;;;78.53;27.40;;;1.50;49.10;;;;;;5049345;28;20457;-68
2022/01/16 02:53:58;;;;;;;78.73;27.60;;;1.50;49.10;;;;;;5049307;28;20837;-68
2022/01/16 02:56:24;;;;;;;75.13;26.87;;;1.60;49.10;;;;;;5049760;28;20836;-68
2022/01/16 02:58:52;;;;;;;78.73;27.40;;;1.50;49.20;;;;;;5048731;28;20493;-68
2022/01/16 03:01:19;;;;;;;80.60;27.27;;;1.50;49.20;;;;;;5051108;28;20474;-68
2022/01/16 03:03:46;;;;;;;86.30;28.40;;;1.50;49.20;;;;;;5049409;28;20462;-68
2022/01/16 03:06:13;;;;;;;76.57;27.03;;;1.50;49.30;;;;;;5048744;28;20563;-68
2022/01/16 03:08:40;;;;;;;75.50;26.97;;;1.50;49.40;;;;;;5048611;28;20577;-67
2022/01/16 03:11:24;;;;;;;80.40;26.83;;;1.60;49.40;;;;;;5049243;28;20458;-68
2022/01/16 03:13:51;;;;;;;81.00;27.50;;;1.60;49.40;;;;;;5049263;28;20454;-67
2022/01/16 03:16:19;;;;;;;77.90;26.77;;;1.50;49.20;;;;;;5049389;28;20485;-68
2022/01/16 03:21:55;;;;;;;80.00;28.00;;;1.50;49.40;;;;;;5006550;28;20460;-68
2022/01/16 03:24:24;;;;;;;84.50;28.77;;;1.60;49.50;;;;;;5005593;28;21313;-69
2022/01/16 03:26:54;;;;;;;81.30;29.50;;;1.60;49.40;;;;;;5029111;28;20473;-69
2022/01/16 03:29:21;;;;;;;74.37;28.20;;;1.60;49.30;;;;;;5037826;28;20812;-68
2022/01/16 03:31:47;;;;;;;77.90;28.83;;;1.60;48.90;;;;;;5048612;28;20557;-69
2022/01/16 03:34:14;;;;;;;79.57;26.67;;;1.60;48.80;;;;;;5048972;28;20485;-67
2022/01/16 03:36:41;;;;;;;75.23;28.27;;;1.70;48.90;;;;;;5048805;28;20470;-68
2022/01/16 03:39:08;;;;;;;76.10;27.17;;;1.60;48.80;;;;;;5047434;28;20860;-68
2022/01/16 03:41:35;;;;;;;76.57;26.87;;;1.60;48.90;;;;;;5028740;28;20470;-68
2022/01/16 03:44:04;;;;;;;71.47;28.27;;;1.60;48.80;;;;;;5028608;28;20463;-69
2022/01/16 03:46:35;;;;;;;79.77;30.47;;;1.60;48.90;;;;;;5028635;28;20475;-68
2022/01/16 03:49:10;;;;;;;79.77;29.50;;;1.60;48.40;;;;;;5028933;28;20486;-68
2022/01/16 03:51:38;;;;;;;74.30;27.53;;;1.60;48.60;;;;;;5048223;28;20460;-67
2022/01/16 03:54:06;;;;;;;70.63;27.53;;;1.60;48.60;;;;;;5045672;28;20822;-68
2022/01/16 03:56:33;;;;;;;81.77;30.37;;;1.60;48.60;;;;;;5031437;28;20558;-67
2022/01/16 03:59:00;;;;;;;79.30;27.97;;;1.60;48.60;;;;;;5048871;28;20489;-68
2022/01/16 04:01:28;;;;;;;80.27;30.10;;;1.50;48.80;;;;;;5046696;28;20474;-68
2022/01/16 04:03:56;;;;;;;76.80;28.13;;;1.50;48.90;;;;;;5048763;28;20458;-68
2022/01/16 04:06:23;;;;;;;78.63;28.80;;;1.60;48.90;;;;;;5048235;28;20481;-68
2022/01/16 04:08:52;;;;;;;82.83;29.83;;;1.60;48.80;;;;;;5047421;28;21125;-67
2022/01/16 04:11:20;;;;;;;79.87;28.60;;;1.60;48.60;;;;;;5039953;28;20474;-67
2022/01/16 04:13:51;;;;;;;77.20;29.63;;;1.60;48.60;;;;;;5043325;28;21167;-67
2022/01/16 04:16:19;;;;;;;84.50;31.70;;;1.60;48.70;;;;;;5028583;28;20510;-67
2022/01/16 04:18:50;;;;;;;87.17;31.37;;;1.60;48.60;;;;;;5033385;28;20470;-67
2022/01/16 04:21:17;;;;;;;78.07;28.47;;;1.60;48.90;;;;;;5047786;28;20564;-69
2022/01/16 04:23:44;;;;;;;80.37;29.60;;;1.60;48.90;;;;;;5032253;28;20458;-68
2022/01/16 04:26:11;;;;;;;79.97;31.03;;;1.60;48.80;;;;;;5029998;28;20479;-68
2022/01/16 04:28:38;;;;;;;76.47;28.57;;;1.50;48.90;;;;;;5028831;28;20454;-67
2022/01/16 04:31:04;;;;;;;78.30;29.20;;;1.60;49.10;;;;;;5036852;28;20474;-68
2022/01/16 04:33:31;;;;;;;91.43;31.50;;;1.60;48.90;;;;;;5048567;28;20473;-68
2022/01/16 04:35:59;;;;;;;84.90;32.13;;;1.60;49.00;;;;;;5048298;28;20474;-68
2022/01/16 04:38:26;;;;;;;81.37;28.57;;;1.60;49.00;;;;;;5047414;28;20504;-68
2022/01/16 04:46:20;;;;;;;82.70;31.73;;;1.50;49.40;;;;;;5029470;28;21069;-67
2022/01/16 04:48:47;;;;;;;79.60;30.43;;;1.60;49.40;;;;;;5028333;28;20477;-69
2022/01/16 04:51:15;;;;;;;87.80;31.13;;;1.60;49.60;;;;;;5028298;28;20467;-69
2022/01/16 04:53:43;;;;;;;89.83;31.43;;;1.60;49.50;;;;;;5044032;28;20461;-67
2022/01/16 04:56:10;;;;;;;92.73;31.20;;;1.50;49.70;;;;;;5047748;28;20477;-67
2022/01/16 04:58:37;;;;;;;87.93;32.30;;;1.50;49.70;;;;;;5047757;28;20482;-68
2022/01/16 05:01:05;;;;;;;89.63;32.20;;;1.50;49.80;;;;;;5045340;28;20482;-68
2022/01/16 05:03:33;;;;;;;86.53;30.77;;;1.60;49.70;;;;;;5044773;28;20465;-68
2022/01/16 05:06:01;;;;;;;88.33;32.90;;;1.60;49.70;;;;;;5047090;28;20490;-69
2022/01/16 05:08:29;;;;;;;90.63;32.13;;;1.60;49.70;;;;;;5045730;28;20458;-67
2022/01/16 05:10:57;;;;;;;87.30;31.77;;;1.60;49.60;;;;;;5047728;28;20465;-67
2022/01/16 05:16:33;;;;;;;90.07;34.03;;;1.60;49.50;;;;;;5046533;28;20553;-67
2022/01/16 05:16:34;;;;;;;87.37;31.13;;;1.60;49.60;;;;;;5047277;28;20561;-68
2022/01/16 05:19:02;;;;;;;86.17;32.30;;;1.60;49.30;;;;;;5046683;28;20508;-67
2022/01/16 05:21:28;;;;;;;90.83;32.60;;;1.60;49.30;;;;;;5047217;28;20544;-67
2022/01/16 05:23:56;;;;;;;93.13;34.63;;;1.60;49.30;;;;;;5044634;28;20469;-67
2022/01/16 05:26:26;;;;;;;93.23;33.80;;;1.60;49.50;;;;;;5047579;28;20478;-67
2022/01/16 05:28:54;;;;;;;95.27;34.03;;;1.60;49.40;;;;;;5047039;28;20905;-67
2022/01/16 05:31:20;;;;;;;92.23;31.27;;;1.60;49.50;;;;;;5046721;28;20478;-67
2022/01/16 05:33:47;;;;;;;92.40;33.97;;;1.60;49.50;;;;;;5046665;28;20473;-67
2022/01/16 05:36:14;;;;;;;91.40;36.23;;;1.60;49.70;;;;;;5034899;28;20474;-68
2022/01/16 05:38:41;;;;;;;92.80;33.10;;;1.60;49.80;;;;;;5028342;28;20496;-68
2022/01/16 05:41:09;;;;;;;97.43;34.63;;;1.60;49.70;;;;;;5046457;28;20458;-68
2022/01/16 05:43:35;;;;;;;95.20;35.97;;;1.60;49.70;;;;;;5040992;28;20458;-68
2022/01/16 05:46:02;;;;;;;94.93;35.47;;;1.60;49.90;;;;;;5041968;28;21045;-67
2022/01/16 05:48:29;;;;;;;96.27;35.57;;;1.60;50.40;;;;;;5027318;28;20470;-67
2022/01/16 05:50:56;;;;;;;95.80;36.83;;;1.70;49.60;;;;;;5027275;28;20469;-67
2022/01/16 05:53:23;;;;;;;87.70;34.57;;;1.70;49.50;;;;;;5030653;28;20485;-68
2022/01/16 05:55:50;;;;;;;96.10;34.93;;;1.60;49.60;;;;;;5043741;28;20477;-68
2022/01/16 05:58:18;;;;;;;91.63;34.37;;;1.70;49.70;;;;;;5050685;28;20482;-69
2022/01/16 06:00:47;;;;;;;98.70;37.70;;;1.70;49.50;;;;;;5048514;28;20844;-68
2022/01/16 06:03:14;;;;;;;95.43;35.00;;;1.70;49.40;;;;;;5044753;28;20454;-68
2022/01/16 06:05:40;;;;;;;91.23;33.87;;;1.70;49.40;;;;;;5049994;28;20473;-69
2022/01/16 06:08:11;;;;;;;97.30;35.20;;;1.70;49.50;;;;;;5049606;28;20450;-68
2022/01/16 06:10:37;;;;;;;100.20;38.70;;;1.70;49.60;;;;;;5046456;28;20464;-67
2022/01/16 06:13:05;;;;;;;101.33;37.83;;;1.70;49.70;;;;;;5053157;28;20461;-67
2022/01/16 06:15:34;;;;;;;103.17;35.73;;;1.70;49.70;;;;;;5051208;28;20527;-68
2022/01/16 06:18:00;;;;;;;86.17;33.23;;;1.70;49.70;;;;;;5036141;28;20474;-68
2022/01/16 06:20:28;;;;;;;91.80;35.67;;;1.70;49.50;;;;;;5032121;28;20486;-68
2022/01/16 06:22:55;;;;;;;96.50;34.60;;;1.70;49.60;;;;;;5049785;28;20483;-69
2022/01/16 06:25:23;;;;;;;99.83;35.27;;;1.70;49.40;;;;;;5036842;28;20835;-68
2022/01/16 06:27:50;;;;;;;96.23;35.20;;;1.70;49.70;;;;;;5042556;28;20450;-67
2022/01/16 06:30:18;;;;;;;93.17;35.20;;;1.70;49.00;;;;;;5049716;28;20842;-69
2022/01/16 06:32:46;;;;;;;99.87;35.53;;;1.70;49.00;;;;;;5049664;28;20489;-68
2022/01/16 06:35:14;;;;;;;100.57;39.23;;;1.70;49.40;;;;;;5050396;28;20637;-68
2022/01/16 06:37:40;;;;;;;97.57;36.93;;;1.70;49.60;;;;;;5050726;28;20449;-67
2022/01/16 06:40:08;;;;;;;89.27;32.40;;;1.70;49.70;;;;;;5050230;28;20470;-68
2022/01/16 06:42:37;;;;;;;89.90;35.70;;;1.70;49.30;;;;;;5048580;28;20465;-68
2022/01/16 06:45:04;;;;;;;114.07;37.00;;;1.70;49.00;;;;;;5050411;28;20468;-68
2022/01/16 06:47:31;;;;;;;98.47;34.07;;;1.70;49.20;;;;;;5050702;28;20457;-68
2022/01/16 06:49:59;;;;;;;91.57;34.87;;;1.70;49.30;;;;;;5050559;28;20446;-68
2022/01/16 06:52:25;;;;;;;96.37;34.80;;;1.70;49.20;;;;;;5050012;28;20458;-69
2022/01/16 06:54:52;;;;;;;99.60;35.60;;;1.70;49.00;;;;;;5048897;28;20476;-68
2022/01/16 06:57:19;;;;;;;101.03;38.17;;;1.70;48.90;;;;;;5050266;28;20983;-68
2022/01/16 06:59:47;;;;;;;93.33;34.20;;;1.70;48.90;;;;;;5049464;28;20481;-67
2022/01/16 07:02:16;;;;;;;92.93;34.83;;;1.70;49.00;;;;;;5048814;28;20470;-68
2022/01/16 07:04:44;;;;;;;99.10;35.70;;;1.70;48.80;;;;;;5049192;28;20581;-68
2022/01/16 07:07:12;;;;;;;96.73;34.53;;;1.70;49.00;;;;;;5049616;28;20482;-68
2022/01/16 07:09:39;;;;;;;98.87;33.27;;;1.60;49.10;;;;;;5050221;28;20458;-66
2022/01/16 07:12:07;;;;;;;98.90;36.90;;;1.70;49.20;;;;;;5049460;28;20834;-68
2022/01/16 07:14:34;;;;;;;96.73;36.00;;;1.60;49.20;;;;;;5048573;28;20465;-68
2022/01/16 07:17:01;;;;;;;94.30;35.03;;;1.70;49.30;;;;;;5048327;28;20485;-68
2022/01/16 07:19:27;;;;;;;89.37;32.97;;;1.70;49.20;;;;;;5049487;28;20497;-67
2022/01/16 07:21:54;;;;;;;95.07;36.33;;;1.70;49.20;;;;;;5049165;28;20458;-67
2022/01/16 07:24:23;;;;;;;93.60;34.87;;;1.70;49.20;;;;;;5049316;28;20466;-68
2022/01/16 07:26:49;;;;;;;95.90;34.83;;;1.70;49.20;;;;;;5048417;28;20885;-67
2022/01/16 07:29:16;;;;;;;93.63;34.27;;;1.80;48.80;;;;;;5049156;28;20461;-68
2022/01/16 07:31:43;;;;;;;94.77;33.97;;;1.80;48.30;;;;;;5048470;28;20474;-67
2022/01/16 07:34:10;;;;;;;91.53;34.97;;;1.80;48.30;;;;;;5049059;28;20458;-68
2022/01/16 07:36:38;;;;;;;93.87;33.37;;;1.70;48.40;;;;;;5047849;28;20482;-68
2022/01/16 07:39:05;;;;;;;91.77;32.40;;;1.80;48.30;;;;;;5049009;28;20478;-67
2022/01/16 07:41:33;;;;;;;92.70;33.47;;;1.80;48.20;;;;;;5048424;28;20457;-69
2022/01/16 07:44:01;;;;;;;93.40;35.13;;;1.80;48.20;;;;;;5049001;28;20462;-69
2022/01/16 07:46:28;;;;;;;92.90;35.30;;;1.80;48.00;;;;;;5048716;28;20518;-68
2022/01/16 07:48:55;;;;;;;86.73;33.53;;;1.80;48.00;;;;;;5048267;28;20840;-67
2022/01/16 07:51:22;;;;;;;84.10;33.17;;;1.80;48.20;;;;;;5048291;28;20454;-68
2022/01/16 07:53:49;;;;;;;89.90;34.20;;;1.80;47.90;;;;;;5048353;28;20782;-67
2022/01/16 07:56:15;;;;;;;93.10;33.90;;;1.90;47.90;;;;;;5048415;28;20480;-68
2022/01/16 07:58:43;;;;;;;90.27;35.50;;;1.90;47.80;;;;;;5046804;28;21165;-67
2022/01/16 08:01:11;;;;;;;95.13;35.10;;;1.90;47.60;;;;;;5048197;28;20474;-68
2022/01/16 08:03:38;;;;;;;95.30;34.47;;;2.00;47.40;;;;;;5048500;28;20459;-67
2022/01/16 08:06:05;;;;;;;86.87;33.70;;;2.00;47.40;;;;;;5048916;28;20769;-69
2022/01/16 08:08:32;;;;;;;93.73;35.27;;;2.00;47.80;;;;;;5047834;28;20458;-67
2022/01/16 08:10:58;;;;;;;92.77;32.83;;;2.00;46.80;;;;;;5047762;28;21001;-68
2022/01/16 08:13:25;;;;;;;90.27;34.77;;;2.00;46.60;;;;;;5048358;28;20462;-68
2022/01/16 08:15:53;;;;;;;92.63;34.67;;;2.00;46.50;;;;;;5047476;28;20485;-67
2022/01/16 08:18:20;;;;;;;86.33;33.67;;;2.10;46.70;;;;;;5048238;28;20570;-68
2022/01/16 08:20:47;;;;;;;89.07;33.33;;;2.10;46.60;;;;;;5046539;28;20730;-69
2022/01/16 08:23:14;;;;;;;82.87;33.57;;;2.20;46.30;;;;;;5048076;28;20464;-68
2022/01/16 08:25:41;;;;;;;85.83;34.73;;;2.40;45.90;;;;;;5048390;28;20858;-68
2022/01/16 08:28:08;;;;;;;82.10;32.70;;;2.60;45.20;;;;;;5048234;28;20465;-69
2022/01/16 08:30:34;;;;;;;90.00;36.97;;;3.00;45.20;;;;;;5046951;28;20466;-68
2022/01/16 08:33:02;;;;;;;80.13;31.03;;;3.60;44.20;;;;;;5048087;28;20454;-72
2022/01/16 08:35:29;;;;;;;80.53;30.63;;;4.20;42.90;;;;;;5048720;28;20474;-70
2022/01/16 08:37:56;;;;;;;79.53;31.77;;;4.90;41.30;;;;;;5042661;28;20455;-69
2022/01/16 08:40:23;;;;;;;79.80;32.97;;;5.40;39.40;;;;;;5027803;28;20486;-70
2022/01/16 08:42:49;;;;;;;79.13;32.23;;;5.90;38.00;;;;;;5030987;28;20450;-70
2022/01/16 08:45:17;;;;;;;96.70;40.73;;;6.10;36.80;;;;;;5047592;28;20454;-69
2022/01/16 08:47:44;;;;;;;74.53;31.20;;;6.20;34.20;;;;;;5048126;28;20804;-69
2022/01/16 08:50:14;;;;;;;86.80;36.40;;;6.20;33.70;;;;;;5047001;28;20466;-70
2022/01/16 08:52:41;;;;;;;78.43;31.17;;;6.20;33.90;;;;;;5047773;28;20541;-70
2022/01/16 08:55:10;;;;;;;70.13;30.17;;;6.40;34.00;;;;;;5047325;28;20455;-69
2022/01/16 08:57:37;;;;;;;72.33;28.43;;;6.70;32.00;;;;;;5044543;28;20834;-69
2022/01/16 09:00:07;;;;;;;70.90;30.70;;;6.90;31.00;;;;;;5046553;28;20500;-70
2022/01/16 09:02:33;;;;;;;71.97;28.20;;;7.10;32.50;;;;;;5037751;28;20474;-69
2022/01/16 09:05:00;;;;;;;73.43;29.67;;;7.40;31.70;;;;;;5045288;28;20484;-70
2022/01/16 09:07:28;;;;;;;71.50;29.37;;;7.70;29.60;;;;;;5047840;28;20458;-69
2022/01/16 09:09:57;;;;;;;69.47;27.90;;;8.00;29.00;;;;;;5047183;28;20458;-69
2022/01/16 09:12:24;;;;;;;65.67;26.27;;;8.30;28.30;;;;;;5046494;28;20465;-69
2022/01/16 09:14:52;;;;;;;69.97;28.13;;;8.80;26.60;;;;;;5047575;28;20457;-69
2022/01/16 09:17:18;;;;;;;63.70;27.40;;;9.40;23.30;;;;;;5040605;28;20496;-70
2022/01/16 09:19:46;;;;;;;66.60;26.00;;;9.90;21.40;;;;;;5047228;28;20482;-70
2022/01/16 09:22:12;;;;;;;61.47;26.27;;;10.30;19.90;;;;;;5046130;28;20548;-70
2022/01/16 09:24:40;;;;;;;60.10;25.23;;;10.40;19.40;;;;;;5044580;28;20470;-70
2022/01/16 09:27:07;;;;;;;60.70;25.67;;;10.60;19.20;;;;;;5027984;28;20501;-69
2022/01/16 09:29:34;;;;;;;62.90;26.20;;;10.70;18.80;;;;;;5035113;28;20454;-71
2022/01/16 09:32:01;;;;;;;64.90;27.70;;;10.90;18.50;;;;;;5049519;28;20470;-70
2022/01/16 09:34:28;;;;;;;63.43;26.67;;;11.20;18.20;;;;;;5044067;28;20465;-69
2022/01/16 09:36:55;;;;;;;56.83;24.30;;;11.60;17.60;;;;;;5053960;28;20544;-70
2022/01/16 09:39:22;;;;;;;56.10;22.80;;;12.20;15.60;;;;;;5053190;28;20472;-70
2022/01/16 09:41:50;;;;;;;59.67;24.80;;;12.90;14.30;;;;;;5069228;28;20460;-70
2022/01/16 09:44:18;;;;;;;56.03;24.10;;;13.50;13.20;;;;;;5050911;28;20462;-70
2022/01/16 09:46:44;;;;;;;56.93;24.67;;;14.20;11.50;;;;;;5048914;28;20478;-70
2022/01/16 09:49:11;;;;;;;59.60;24.67;;;14.70;10.30;;;;;;5043977;28;20461;-69
2022/01/16 09:51:38;;;;;;;55.97;23.47;;;15.10;9.60;;;;;;5051111;28;20461;-70
2022/01/16 09:54:06;;;;;;;53.70;23.60;;;15.80;8.80;;;;;;5049669;28;21120;-70
2022/01/16 09:56:32;;;;;;;51.67;21.47;;;16.50;8.20;;;;;;5051150;28;20474;-70
2022/01/16 09:59:00;;;;;;;54.60;23.50;;;17.00;5.90;;;;;;5051187;28;20458;-70
2022/01/16 10:01:27;;;;;;;54.47;23.97;;;17.30;5.90;;;;;;5049610;28;20481;-70
2022/01/16 10:03:54;;;;;;;55.00;23.30;;;17.70;5.40;;;;;;5049806;28;20910;-70
2022/01/16 10:06:24;;;;;;;51.43;22.17;;;18.20;4.60;;;;;;5050673;28;20489;-70
2022/01/16 10:08:53;;;;;;;54.83;23.40;;;18.70;3.70;;;;;;5051096;28;20458;-70
2022/01/16 10:11:21;;;;;;;54.23;23.30;;;19.10;3.10;;;;;;5050307;28;20446;-69
2022/01/16 10:13:56;;;;;;;53.30;23.37;;;19.30;2.40;;;;;;5049814;28;20470;-70
2022/01/16 10:16:30;;;;;;;53.10;22.53;;;19.60;2.00;;;;;;5051064;28;20489;-70
2022/01/16 10:18:57;;;;;;;48.50;21.53;;;19.80;1.60;;;;;;5049988;28;20462;-71
2022/01/16 10:21:39;;;;;;;49.10;22.70;;;20.00;1.50;;;;;;5050340;28;20457;-70
2022/01/16 10:24:20;;;;;;;50.80;22.70;;;20.40;1.00;;;;;;5048818;28;20476;-71
2022/01/16 10:26:49;;;;;;;50.77;22.63;;;20.80;1.00;;;;;;5049748;28;20482;-71
2022/01/16 10:29:17;;;;;;;49.67;21.60;;;21.20;1.00;;;;;;5049251;28;20955;-71
2022/01/16 10:31:46;;;;;;;57.27;27.20;;;21.50;1.00;;;;;;5048183;28;20963;-70
2022/01/16 10:34:31;;;;;;;50.60;21.90;;;21.80;1.00;;;;;;5048749;28;20549;-70
2022/01/16 10:36:59;;;;;;;49.93;22.23;;;22.10;1.00;;;;;;5049405;28;20784;-70
2022/01/16 10:39:26;;;;;;;49.30;20.53;;;22.50;1.00;;;;;;5050047;28;21137;-71
2022/01/16 10:42:16;;;;;;;45.30;21.30;;;22.70;1.00;;;;;;5050244;28;20737;-70
2022/01/16 10:44:43;;;;;;;44.67;19.90;;;22.90;1.00;;;;;;5048321;28;20954;-70
2022/01/16 10:47:38;;;;;;;48.33;20.80;;;23.10;1.00;;;;;;5049911;28;20477;-71
2022/01/16 10:50:09;;;;;;;45.07;19.10;;;23.10;1.00;;;;;;5049512;28;20458;-70
2022/01/16 10:52:56;;;;;;;45.80;20.07;;;23.10;1.00;;;;;;5046065;28;20462;-70
2022/01/16 10:55:31;;;;;;;51.10;19.27;;;23.20;1.00;;;;;;5047433;28;20482;-70
2022/01/16 10:58:02;;;;;;;47.30;19.67;;;23.30;1.00;;;;;;5050101;28;20458;-70
2022/01/16 11:00:29;;;;;;;44.70;19.43;;;23.40;1.00;;;;;;5049509;28;20580;-70
2022/01/16 11:03:02;;;;;;;46.13;19.53;;;23.40;1.00;;;;;;5050091;28;20473;-70
2022/01/16 11:05:33;;;;;;;46.67;19.80;;;23.60;1.00;;;;;;5048096;28;20486;-72
2022/01/16 11:08:02;;;;;;;44.90;18.67;;;23.60;1.00;;;;;;5049644;28;20838;-72
2022/01/16 11:10:31;;;;;;;44.90;20.33;;;23.50;1.00;;;;;;5049000;28;20813;-71
2022/01/16 11:13:00;;;;;;;44.43;18.30;;;23.50;1.00;;;;;;5049649;28;20462;-71
2022/01/16 11:15:28;;;;;;;45.60;20.77;;;23.50;1.00;;;;;;5045511;28;20933;-71
2022/01/16 11:17:57;;;;;;;47.67;20.13;;;23.50;1.00;;;;;;5049370;28;20449;-71
2022/01/16 11:20:29;;;;;;;46.40;21.50;;;23.30;1.00;;;;;;5047618;28;21062;-70
2022/01/16 11:23:00;;;;;;;45.50;20.33;;;23.30;1.00;;;;;;5028603;28;20924;-71
2022/01/16 11:25:33;;;;;;;45.53;19.40;;;23.10;1.00;;;;;;5028943;28;20489;-71
2022/01/16 11:28:07;;;;;;;44.17;18.50;;;22.90;1.00;;;;;;5045952;28;20466;-71
2022/01/16 11:30:36;;;;;;;45.93;18.37;;;22.60;1.00;;;;;;5048113;28;20472;-71
2022/01/16 11:33:05;;;;;;;44.73;18.40;;;22.40;1.00;;;;;;5047119;28;20958;-71
2022/01/16 11:35:40;;;;;;;44.37;18.17;;;22.10;1.00;;;;;;5047425;28;20479;-71
2022/01/16 11:38:06;;;;;;;45.77;18.83;;;21.80;1.00;;;;;;5050439;28;20487;-71
2022/01/16 11:40:42;;;;;;;46.93;19.80;;;21.40;1.00;;;;;;5048614;28;20486;-71
2022/01/16 11:43:18;;;;;;;47.60;20.30;;;21.10;1.00;;;;;;5050025;28;21196;-71
2022/01/16 11:45:51;;;;;;;45.57;18.47;;;20.70;1.00;;;;;;5044479;28;20528;-71
2022/01/16 11:48:50;;;;;;;50.00;20.40;;;20.40;1.00;;;;;;5034777;28;20525;-71
2022/01/16 11:51:52;;;;;;;45.70;18.20;;;19.90;1.00;;;;;;5043093;28;21030;-71
2022/01/16 11:54:24;;;;;;;44.77;18.13;;;19.50;1.90;;;;;;5048441;28;20515;-72
2022/01/16 11:57:30;;;;;;;47.80;19.73;;;19.00;2.40;;;;;;5046209;28;20478;-71
2022/01/16 12:00:09;;;;;;;44.97;18.20;;;18.60;2.70;;;;;;5028431;28;20570;-71
2022/01/16 12:02:41;;;;;;;45.40;18.57;;;18.10;3.30;;;;;;5031413;28;20469;-71
2022/01/16 12:05:09;;;;;;;49.70;21.17;;;17.70;4.00;;;;;;5048970;28;20458;-71
2022/01/16 12:08:12;;;;;;;50.53;21.77;;;17.30;4.40;;;;;;5036390;28;20461;-71
2022/01/16 12:10:57;;;;;;;47.80;20.30;;;16.80;5.20;;;;;;5041952;28;20441;-71
2022/01/16 12:13:49;;;;;;;47.07;18.37;;;16.50;5.70;;;;;;5030088;28;20450;-71
2022/01/16 12:16:40;;;;;;;46.33;17.67;;;16.20;6.40;;;;;;5044021;28;20478;-72
2022/01/16 12:19:47;;;;;;;49.83;18.53;;;16.00;6.60;;;;;;5043854;28;20467;-70
2022/01/16 12:22:18;;;;;;;49.37;19.83;;;15.70;6.50;;;;;;5040280;28;20564;-71
2022/01/16 12:24:49;;;;;;;49.83;19.40;;;15.50;7.00;;;;;;5036477;28;20450;-70
2022/01/16 12:27:27;;;;;;;47.03;17.97;;;15.30;7.30;;;;;;5043530;28;20474;-71
2022/01/16 12:30:35;;;;;;;47.10;16.87;;;15.10;7.60;;;;;;5039548;28;20460;-71
2022/01/16 12:33:08;;;;;;;44.40;16.67;;;14.90;8.00;;;;;;5043810;28;20465;-71
2022/01/16 12:36:17;;;;;;;47.47;16.60;;;14.70;8.40;;;;;;5048289;28;20510;-71
2022/01/16 12:38:55;;;;;;;48.93;17.40;;;14.50;8.30;;;;;;5046434;28;20458;-71
2022/01/16 12:41:35;;;;;;;46.67;16.90;;;14.30;8.50;;;;;;5045844;28;20489;-71
2022/01/16 12:44:04;;;;;;;46.33;16.77;;;14.10;8.90;;;;;;5048565;28;20493;-70
2022/01/16 12:46:34;;;;;;;46.27;16.40;;;13.90;9.40;;;;;;5048618;28;20489;-71
2022/01/16 12:49:03;;;;;;;49.57;18.07;;;13.70;9.70;;;;;;5044859;28;20466;-70
2022/01/16 12:51:32;;;;;;;46.43;16.20;;;13.50;9.80;;;;;;5043421;28;21013;-71
2022/01/16 12:54:05;;;;;;;47.67;18.30;;;13.40;10.10;;;;;;5046714;28;20504;-70
2022/01/16 12:56:34;;;;;;;49.07;18.20;;;13.20;10.80;;;;;;5048046;28;20477;-70
2022/01/16 12:59:12;;;;;;;47.60;17.10;;;13.10;11.00;;;;;;5048497;28;20454;-70
2022/01/16 13:01:46;;;;;;;49.17;17.23;;;13.00;10.90;;;;;;5050113;28;20477;-71
2022/01/16 13:04:21;;;;;;;53.87;20.47;;;12.80;11.30;;;;;;5050892;28;20468;-71
2022/01/16 13:06:48;;;;;;;48.93;17.97;;;12.70;11.60;;;;;;5049919;28;20480;-70
2022/01/16 13:09:16;;;;;;;51.07;19.37;;;12.70;11.80;;;;;;5054290;28;20462;-70
2022/01/16 13:11:46;;;;;;;48.77;18.27;;;12.60;12.10;;;;;;5049518;28;20834;-71
2022/01/16 13:14:15;;;;;;;49.13;16.97;;;12.40;12.10;;;;;;5049710;28;20488;-70
2022/01/16 13:16:44;;;;;;;51.30;17.50;;;12.00;12.70;;;;;;5051437;28;20500;-70
2022/01/16 13:19:16;;;;;;;49.00;17.40;;;11.70;13.10;;;;;;5050309;28;21556;-70
2022/01/16 13:21:47;;;;;;;56.47;19.90;;;11.30;13.60;;;;;;5046718;28;20478;-70
2022/01/16 13:24:36;;;;;;;49.87;17.23;;;11.00;14.30;;;;;;5049873;28;20839;-70
2022/01/16 13:27:05;;;;;;;51.47;17.87;;;10.60;14.80;;;;;;5048670;28;20484;-70